This is the latest recevied weather packets stored in our database for station/object EA1GCN-10. If no packets are shown the sender has not sent any weather packets the latest 10 day(s).
| Time | Temp. | Humidity | Pressure | Rain* | Wind** | Luminosity | Snow |
|---|---|---|---|---|---|---|---|
| 1777660887 | 23.33° C | 55% | 1017 hPa | - | - | - | - |
| 1777659088 | 23.89° C | 55% | 1018 hPa | - | - | - | - |
| 1777657287 | 23.89° C | 54% | 1018 hPa | - | - | - | - |
| 1777655487 | 23.89° C | 53% | 1018 hPa | - | - | - | - |
| 1777653687 | 24.44° C | 52% | 1018 hPa | - | - | - | - |
| 1777651887 | 25° C | 51% | 1018 hPa | - | - | - | - |
| 1777650087 | 25.56° C | 49% | 1018 hPa | - | - | - | - |
| 1777648287 | 26.67° C | 46% | 1018 hPa | - | - | - | - |
| 1777646487 | 27.22° C | 44% | 1018 hPa | - | - | - | - |
| 1777644687 | 26.67° C | 46% | 1018 hPa | - | - | - | - |
| 1777642885 | 25.56° C | 48% | 1019 hPa | - | - | - | - |
| 1777641085 | 25.56° C | 48% | 1019 hPa | - | - | - | - |
| 1777639285 | 25.56° C | 49% | 1018 hPa | - | - | - | - |
| 1777637485 | 25° C | 50% | 1019 hPa | - | - | - | - |
| 1777635685 | 23.33° C | 55% | 1019 hPa | - | - | - | - |
| 1777633885 | 22.22° C | 58% | 1019 hPa | - | - | - | - |
| 1777632085 | 22.78° C | 55% | 1019 hPa | - | - | - | - |
| 1777630285 | 21.67° C | 57% | 1019 hPa | - | - | - | - |
| 1777628485 | 22.22° C | 54% | 1019 hPa | - | - | - | - |
| 1777626685 | 21.11° C | 58% | 1020 hPa | - | - | - | - |
| 1777624884 | 20.56° C | 59% | 1019 hPa | - | - | - | - |
| 1777623084 | 20.56° C | 60% | 1019 hPa | - | - | - | - |
| 1777621284 | 20° C | 59% | 1019 hPa | - | - | - | - |
| 1777619484 | 20.56° C | 63% | 1019 hPa | - | - | - | - |
| 1777617684 | 20° C | 62% | 1019 hPa | - | - | - | - |
* Rain since midnight (hover to see other rain measurements)
** Current wind speed in m/s (hover to see current wind gust speed)